Time;durP1;ratioP1;P1;durP2;ratioP2;P2;SDS_P1;SDS_P2;PMS_P1;PMS_P2;Temp;Humidity;BMP_temperature;BMP_pressure;BME280_temperature;BME280_humidity;BME280_pressure;Samples;Min_cycle;Max_cycle;Signal;HPM_P1;HPM_P2
2022/05/21 00:01:56;;;;;;;4.13;1.47;;;17.90;98.70;;;;;;5061545;28;20198;-72
2022/05/21 00:04:33;;;;;;;4.77;1.80;;;17.90;98.70;;;;;;5024427;28;20706;-72
2022/05/21 00:06:59;;;;;;;1.90;1.50;;;17.90;98.40;;;;;;5050561;28;20274;-72
2022/05/21 00:09:29;;;;;;;5.13;1.70;;;17.90;98.90;;;;;;5066009;28;20222;-72
2022/05/21 00:11:57;;;;;;;3.43;1.70;;;17.90;98.80;;;;;;5055397;28;20225;-72
2022/05/21 00:14:36;;;;;;;4.73;2.00;;;17.90;98.40;;;;;;5063459;28;20190;-72
2022/05/21 00:17:04;;;;;;;7.03;1.63;;;17.90;98.80;;;;;;5041928;28;20182;-72
2022/05/21 00:19:30;;;;;;;1.37;1.13;;;17.90;98.70;;;;;;5056246;28;20199;-72
2022/05/21 00:21:58;;;;;;;4.53;1.80;;;17.80;98.50;;;;;;5046394;28;20195;-72
2022/05/21 00:24:24;;;;;;;4.97;1.90;;;17.80;98.90;;;;;;5046035;28;20293;-72
2022/05/21 00:26:51;;;;;;;3.40;1.53;;;17.80;98.50;;;;;;5051614;28;20248;-72
2022/05/21 00:29:20;;;;;;;3.37;1.63;;;17.80;98.30;;;;;;5058964;28;20235;-72
2022/05/21 00:31:49;;;;;;;4.93;1.60;;;17.80;98.60;;;;;;5062337;28;20670;-72
2022/05/21 00:34:16;;;;;;;5.10;1.87;;;17.80;98.60;;;;;;5061297;28;20289;-72
2022/05/21 00:36:42;;;;;;;5.87;1.80;;;17.80;98.50;;;;;;5056363;28;20188;-72
2022/05/21 00:39:08;;;;;;;9.33;1.67;;;17.70;98.40;;;;;;5059993;28;20186;-72
2022/05/21 00:41:37;;;;;;;3.97;1.53;;;17.70;98.40;;;;;;5083848;28;20510;-72
2022/05/21 00:44:04;;;;;;;3.30;1.20;;;17.70;98.30;;;;;;5065298;28;20644;-72
2022/05/21 00:46:41;;;;;;;5.73;1.33;;;17.70;98.70;;;;;;5057841;28;20188;-72
2022/05/21 00:49:23;;;;;;;7.57;1.50;;;17.70;98.60;;;;;;5044562;28;20658;-72
2022/05/21 00:51:58;;;;;;;3.77;1.73;;;17.60;98.40;;;;;;5069328;28;21068;-72
2022/05/21 00:54:34;;;;;;;3.87;1.70;;;17.60;98.90;;;;;;5043599;28;20186;-72
2022/05/21 00:57:39;;;;;;;2.90;1.40;;;17.60;98.70;;;;;;5058040;28;20191;-72
2022/05/21 01:00:21;;;;;;;3.80;1.67;;;17.60;98.20;;;;;;5055577;28;20198;-72
2022/05/21 01:02:52;;;;;;;4.60;1.80;;;17.60;98.30;;;;;;5040653;28;20199;-72
2022/05/21 01:05:24;;;;;;;5.47;1.63;;;17.60;98.20;;;;;;5061472;28;20187;-72
2022/05/21 01:07:58;;;;;;;6.03;1.53;;;17.50;98.20;;;;;;5069774;28;20225;-72
2022/05/21 01:10:30;;;;;;;7.17;1.73;;;17.50;98.00;;;;;;5063783;28;20219;-72
2022/05/21 01:12:58;;;;;;;3.77;1.20;;;17.50;98.20;;;;;;5049969;28;20179;-72
2022/05/21 01:15:34;;;;;;;4.33;1.53;;;17.50;98.00;;;;;;5048358;28;20271;-72
2022/05/21 01:18:07;;;;;;;4.33;1.37;;;17.50;98.20;;;;;;5057917;28;20182;-72
2022/05/21 01:20:44;;;;;;;4.17;1.27;;;17.50;98.20;;;;;;5079028;28;20666;-72
2022/05/21 01:23:12;;;;;;;4.47;1.43;;;17.40;98.00;;;;;;5045997;28;20574;-72
2022/05/21 01:25:41;;;;;;;3.93;1.50;;;17.40;98.10;;;;;;5060347;28;20242;-72
2022/05/21 01:28:13;;;;;;;5.23;1.50;;;17.40;97.90;;;;;;5067528;28;20194;-72
2022/05/21 01:30:55;;;;;;;7.97;1.50;;;17.40;98.10;;;;;;5048924;28;20683;-72
2022/05/21 01:33:26;;;;;;;5.63;1.47;;;17.40;97.90;;;;;;5051783;28;20218;-72
2022/05/21 01:35:53;;;;;;;5.27;1.50;;;17.40;98.00;;;;;;5055627;28;20194;-72
2022/05/21 01:38:23;;;;;;;2.50;1.50;;;17.40;97.70;;;;;;5047018;28;20184;-72
2022/05/21 01:40:52;;;;;;;4.20;1.33;;;17.30;97.60;;;;;;5049889;28;20199;-74
2022/05/21 01:46:04;;;;;;;2.90;1.20;;;17.30;97.60;;;;;;5061696;28;20183;-73
2022/05/21 01:48:33;;;;;;;4.40;1.60;;;17.30;97.90;;;;;;5069728;28;20216;-72
2022/05/21 01:51:00;;;;;;;4.77;1.60;;;17.40;97.80;;;;;;5058793;28;20331;-73
2022/05/21 01:53:35;;;;;;;4.17;1.50;;;17.30;97.60;;;;;;5053310;28;21002;-73
2022/05/21 01:56:06;;;;;;;2.60;1.40;;;17.20;97.70;;;;;;5064716;28;20297;-73
2022/05/21 01:58:33;;;;;;;7.60;1.53;;;17.20;97.80;;;;;;5064448;28;20198;-73
2022/05/21 02:01:09;;;;;;;5.00;1.60;;;17.20;97.70;;;;;;5058045;28;20238;-72
2022/05/21 02:03:37;;;;;;;5.63;1.73;;;17.20;97.90;;;;;;5079429;28;20223;-72
2022/05/21 02:06:07;;;;;;;3.80;1.90;;;17.20;97.90;;;;;;5053553;28;20179;-73
2022/05/21 02:08:34;;;;;;;9.07;1.80;;;17.20;98.20;;;;;;5068718;28;20643;-72
2022/05/21 02:11:00;;;;;;;2.90;1.27;;;17.10;97.80;;;;;;5062729;28;20233;-73
2022/05/21 02:13:31;;;;;;;4.77;1.47;;;17.10;98.10;;;;;;5034271;28;20185;-73
2022/05/21 02:16:04;;;;;;;6.47;1.60;;;17.10;98.10;;;;;;5048109;28;20248;-72
2022/05/21 02:18:31;;;;;;;2.60;1.60;;;17.10;98.20;;;;;;5074180;28;20653;-72
2022/05/21 02:20:58;;;;;;;3.43;1.37;;;17.10;98.00;;;;;;5050232;28;20217;-73
2022/05/21 02:23:27;;;;;;;3.17;1.47;;;17.00;98.30;;;;;;5061923;28;20197;-72
2022/05/21 02:25:58;;;;;;;7.20;1.53;;;17.00;98.30;;;;;;5061812;28;20207;-72
2022/05/21 02:28:25;;;;;;;4.93;1.60;;;17.00;98.30;;;;;;5059922;28;20187;-73
2022/05/21 02:30:53;;;;;;;6.63;1.70;;;17.00;98.30;;;;;;5055336;28;20710;-73
2022/05/21 02:33:19;;;;;;;3.77;1.40;;;17.00;98.30;;;;;;5049002;28;20528;-72
2022/05/21 02:35:48;;;;;;;6.13;1.50;;;16.90;98.20;;;;;;5053661;28;20830;-72
2022/05/21 02:41:13;;;;;;;5.17;1.60;;;17.00;98.50;;;;;;5035663;28;20669;-73
2022/05/21 02:43:42;;;;;;;2.43;1.37;;;17.00;98.50;;;;;;5054263;28;20585;-73
2022/05/21 02:46:15;;;;;;;7.77;1.70;;;17.00;98.50;;;;;;5059877;28;20210;-72
2022/05/21 02:48:42;;;;;;;11.63;1.90;;;17.00;98.80;;;;;;5057481;28;20186;-72
2022/05/21 02:51:10;;;;;;;11.20;2.07;;;17.00;98.70;;;;;;5052051;28;20203;-73
2022/05/21 02:53:38;;;;;;;11.37;2.07;;;17.00;98.90;;;;;;5076910;28;20543;-72
2022/05/21 02:56:11;;;;;;;4.87;1.60;;;17.00;98.90;;;;;;5043729;28;20211;-73
2022/05/21 02:58:37;;;;;;;12.23;2.30;;;17.00;98.90;;;;;;5024015;28;20596;-72
2022/05/21 03:01:04;;;;;;;3.30;1.47;;;17.00;98.90;;;;;;5063479;28;20187;-72
2022/05/21 03:03:39;;;;;;;6.13;2.03;;;16.90;98.80;;;;;;5056543;28;20187;-73
2022/05/21 03:06:09;;;;;;;4.20;1.30;;;17.00;99.10;;;;;;5064928;28;20646;-73
2022/05/21 03:11:20;;;;;;;5.43;1.40;;;16.90;98.90;;;;;;5063802;28;20286;-72
2022/05/21 03:13:46;;;;;;;5.40;1.60;;;16.90;98.50;;;;;;5063603;28;20188;-73
2022/05/21 03:16:13;;;;;;;4.83;1.60;;;16.90;98.70;;;;;;5056897;28;20205;-72
2022/05/21 03:18:40;;;;;;;11.67;1.60;;;16.90;98.80;;;;;;5030427;28;20216;-73
2022/05/21 03:21:10;;;;;;;4.53;1.50;;;17.00;98.90;;;;;;5051423;28;20222;-72
2022/05/21 03:23:36;;;;;;;3.20;1.40;;;17.00;98.90;;;;;;5065410;28;20194;-73
2022/05/21 03:26:02;;;;;;;2.80;1.23;;;17.00;98.90;;;;;;5057822;28;20214;-72
2022/05/21 03:28:32;;;;;;;2.87;1.77;;;17.10;99.10;;;;;;5051622;28;20746;-72
2022/05/21 03:31:02;;;;;;;4.40;2.10;;;17.10;99.20;;;;;;5060448;28;20226;-72
2022/05/21 03:33:32;;;;;;;5.37;1.60;;;17.20;99.00;;;;;;5060215;28;20186;-72
2022/05/21 03:35:58;;;;;;;3.43;1.63;;;17.20;99.50;;;;;;5043618;28;20187;-73
2022/05/21 03:38:25;;;;;;;5.00;1.80;;;17.20;99.50;;;;;;5068275;28;20280;-72
2022/05/21 03:40:51;;;;;;;4.97;1.90;;;17.10;99.80;;;;;;5069008;28;20194;-73
2022/05/21 03:43:20;;;;;;;4.67;1.50;;;17.10;99.80;;;;;;5042484;28;20195;-72
2022/05/21 03:45:47;;;;;;;3.07;1.70;;;17.20;99.90;;;;;;5054819;28;20191;-72
2022/05/21 03:48:15;;;;;;;4.70;1.60;;;17.20;99.90;;;;;;5060827;28;20195;-73
2022/05/21 03:50:45;;;;;;;4.13;1.50;;;17.20;99.90;;;;;;5070165;28;20222;-72
2022/05/21 03:53:13;;;;;;;3.87;1.60;;;17.20;99.90;;;;;;5065468;28;20643;-73
2022/05/21 03:55:39;;;;;;;4.70;1.70;;;17.20;99.90;;;;;;5035104;28;20187;-72
2022/05/21 03:58:06;;;;;;;3.83;1.47;;;17.20;99.90;;;;;;5066923;28;20183;-72
2022/05/21 04:00:32;;;;;;;3.00;1.43;;;17.20;99.90;;;;;;5055711;28;20944;-72
2022/05/21 04:02:59;;;;;;;2.73;1.30;;;17.30;99.90;;;;;;5071817;28;20209;-73
2022/05/21 04:05:26;;;;;;;8.87;1.60;;;17.30;99.90;;;;;;5058963;28;20761;-72
2022/05/21 04:07:53;;;;;;;3.70;1.67;;;17.30;99.90;;;;;;5047761;28;20683;-73
2022/05/21 04:10:19;;;;;;;5.30;1.43;;;17.40;99.90;;;;;;5067013;28;20991;-72
2022/05/21 04:12:49;;;;;;;4.17;1.43;;;17.40;99.90;;;;;;5052039;28;20189;-72
2022/05/21 04:15:16;;;;;;;2.90;1.60;;;17.50;99.90;;;;;;5066655;28;20218;-72
2022/05/21 04:17:42;;;;;;;2.87;1.20;;;17.50;99.90;;;;;;5042617;28;20192;-72
2022/05/21 04:20:19;;;;;;;2.53;1.40;;;17.60;99.90;;;;;;5056014;28;20201;-72
2022/05/21 04:22:50;;;;;;;5.43;1.60;;;17.60;99.90;;;;;;5061657;28;20186;-72
2022/05/21 04:25:17;;;;;;;3.60;1.40;;;17.70;99.90;;;;;;5051849;28;20190;-72
2022/05/21 04:27:43;;;;;;;2.33;1.47;;;17.80;99.90;;;;;;5070946;28;20195;-73
2022/05/21 04:30:19;;;;;;;5.30;1.50;;;17.80;99.90;;;;;;5038867;28;20301;-72
2022/05/21 04:32:48;;;;;;;3.30;1.27;;;17.90;99.90;;;;;;5060464;28;20237;-72
2022/05/21 04:35:17;;;;;;;3.03;1.30;;;18.00;99.90;;;;;;5051829;28;20656;-72
2022/05/21 04:37:44;;;;;;;3.93;1.20;;;18.10;99.90;;;;;;5090383;28;20201;-73
2022/05/21 04:40:17;;;;;;;5.70;1.60;;;18.20;99.90;;;;;;5066442;28;20210;-73
2022/05/21 04:42:43;;;;;;;3.97;1.50;;;18.40;99.90;;;;;;5061101;28;20214;-73
2022/05/21 04:45:12;;;;;;;3.97;1.50;;;18.50;99.90;;;;;;5063776;28;20528;-73
2022/05/21 04:47:39;;;;;;;1.93;1.27;;;18.60;99.90;;;;;;5081674;28;20192;-72
2022/05/21 04:50:13;;;;;;;4.73;1.43;;;18.60;99.90;;;;;;5042790;28;20237;-73
2022/05/21 04:52:40;;;;;;;2.17;1.30;;;18.60;99.90;;;;;;5059526;28;20207;-73
2022/05/21 04:55:09;;;;;;;2.33;1.33;;;18.70;99.90;;;;;;5075604;28;20286;-73
2022/05/21 04:57:36;;;;;;;2.77;1.37;;;18.70;99.90;;;;;;5084638;28;20183;-73
2022/05/21 05:00:08;;;;;;;4.83;1.23;;;18.80;99.90;;;;;;5066884;28;20300;-73
2022/05/21 05:02:37;;;;;;;3.73;1.27;;;18.90;99.90;;;;;;5061550;28;20270;-73
2022/05/21 05:05:05;;;;;;;2.10;1.30;;;19.00;99.90;;;;;;5044072;28;20656;-73
2022/05/21 05:07:31;;;;;;;4.23;1.63;;;19.10;99.90;;;;;;5062253;28;20500;-73
2022/05/21 05:09:58;;;;;;;4.10;1.50;;;19.10;99.90;;;;;;5060284;28;20707;-73
2022/05/21 05:12:24;;;;;;;4.73;1.30;;;19.20;99.90;;;;;;5056379;28;20669;-73
2022/05/21 05:14:51;;;;;;;4.13;1.20;;;19.20;99.90;;;;;;5068228;28;20272;-73
2022/05/21 05:17:19;;;;;;;5.10;1.80;;;19.30;99.90;;;;;;5034448;28;20676;-73
2022/05/21 05:19:49;;;;;;;4.10;1.40;;;19.30;99.90;;;;;;5049706;28;20199;-73
2022/05/21 05:22:18;;;;;;;3.60;1.60;;;19.30;99.90;;;;;;5067202;28;20194;-73
2022/05/21 05:24:47;;;;;;;6.17;1.60;;;19.30;99.90;;;;;;5046987;28;20182;-73
2022/05/21 05:27:14;;;;;;;5.87;1.50;;;19.40;99.90;;;;;;5047069;28;20585;-73
2022/05/21 05:29:40;;;;;;;6.10;1.83;;;19.50;99.90;;;;;;5061854;28;20270;-73
2022/05/21 05:32:08;;;;;;;2.27;1.30;;;19.50;98.80;;;;;;5061350;28;20242;-73
2022/05/21 05:34:40;;;;;;;2.77;1.50;;;19.80;99.30;;;;;;5062234;28;20183;-73
2022/05/21 05:37:06;;;;;;;7.60;1.50;;;19.90;98.20;;;;;;5064985;28;20205;-73
2022/05/21 05:39:33;;;;;;;3.50;1.50;;;20.10;98.10;;;;;;5062372;28;20190;-73
2022/05/21 05:42:05;;;;;;;4.43;1.60;;;20.20;97.70;;;;;;5055800;28;20195;-74
2022/05/21 05:44:33;;;;;;;7.90;1.40;;;20.30;97.80;;;;;;5063992;28;20542;-73
2022/05/21 05:47:05;;;;;;;3.47;1.47;;;20.30;98.00;;;;;;5049886;28;20240;-72
2022/05/21 05:49:46;;;;;;;4.63;1.80;;;20.50;97.90;;;;;;5046180;28;20210;-73
2022/05/21 05:52:13;;;;;;;3.73;1.93;;;20.70;97.90;;;;;;5060766;28;20201;-73
2022/05/21 05:54:39;;;;;;;2.97;1.57;;;20.90;98.60;;;;;;5076969;28;20780;-73
2022/05/21 05:57:10;;;;;;;9.60;2.20;;;21.00;98.80;;;;;;5066435;28;20183;-73
2022/05/21 05:59:51;;;;;;;9.90;1.90;;;21.10;99.40;;;;;;5045114;28;20203;-73
2022/05/21 06:05:15;;;;;;;5.73;1.97;;;21.30;99.90;;;;;;5068347;28;20247;-73
2022/05/21 06:07:54;;;;;;;5.23;2.10;;;21.40;99.90;;;;;;5060320;28;20191;-72
2022/05/21 06:10:35;;;;;;;4.40;2.07;;;21.50;99.90;;;;;;5077480;28;20218;-73
2022/05/21 06:13:04;;;;;;;8.03;1.87;;;21.50;99.90;;;;;;5057457;28;20239;-73
2022/05/21 06:15:34;;;;;;;4.20;2.00;;;21.50;99.90;;;;;;5064781;28;20191;-73
2022/05/21 06:18:11;;;;;;;7.50;1.80;;;21.70;99.90;;;;;;5058722;28;20191;-72
2022/05/21 06:20:39;;;;;;;6.57;2.07;;;21.80;99.90;;;;;;5058477;28;20225;-72
2022/05/21 06:23:07;;;;;;;8.03;1.70;;;21.90;99.90;;;;;;5058924;28;20198;-73
2022/05/21 06:25:34;;;;;;;6.90;1.57;;;21.90;99.90;;;;;;5059327;28;20556;-73
2022/05/21 06:28:05;;;;;;;4.40;1.90;;;21.90;99.90;;;;;;5025329;28;20912;-73
2022/05/21 06:30:35;;;;;;;2.53;1.70;;;22.00;99.90;;;;;;5070677;28;20293;-72
2022/05/21 06:33:27;;;;;;;5.73;1.70;;;22.00;99.90;;;;;;5067549;28;20194;-73
2022/05/21 06:36:14;;;;;;;3.20;1.67;;;22.20;99.90;;;;;;5058698;28;20202;-72
2022/05/21 06:38:44;;;;;;;5.37;1.60;;;22.30;99.90;;;;;;5045518;28;20186;-72
2022/05/21 06:41:10;;;;;;;3.70;1.80;;;22.30;99.30;;;;;;5061406;28;20259;-71
2022/05/21 06:43:39;;;;;;;5.70;1.90;;;22.40;98.60;;;;;;5080502;28;20211;-72
2022/05/21 06:46:09;;;;;;;4.20;2.00;;;22.50;99.50;;;;;;5050055;28;20236;-72
2022/05/21 06:48:36;;;;;;;3.90;1.70;;;22.50;98.30;;;;;;5070176;28;20187;-71
2022/05/21 06:51:05;;;;;;;3.35;1.60;;;22.60;99.00;;;;;;5050225;28;20211;-71
2022/05/21 06:53:34;;;;;;;4.37;1.87;;;22.70;99.10;;;;;;5066063;28;20337;-71
2022/05/21 06:56:09;;;;;;;4.70;1.77;;;22.70;98.90;;;;;;5059652;28;20188;-72
2022/05/21 06:58:37;;;;;;;7.43;2.13;;;22.80;98.50;;;;;;5061112;28;20548;-72
2022/05/21 07:01:05;;;;;;;7.82;2.03;;;22.90;99.90;;;;;;5026952;28;20821;-72
2022/05/21 07:03:33;;;;;;;5.77;1.77;;;23.00;99.80;;;;;;5062330;28;20516;-72
2022/05/21 07:08:48;;;;;;;3.90;1.88;;;23.20;99.90;;;;;;5063522;28;20191;-72
2022/05/21 07:11:16;;;;;;;5.90;1.73;;;23.20;99.10;;;;;;5053250;28;20218;-71
2022/05/21 07:13:50;;;;;;;3.72;1.70;;;23.30;98.90;;;;;;5033356;28;20191;-72
2022/05/21 07:16:17;;;;;;;5.75;1.85;;;23.40;98.80;;;;;;5063535;28;20186;-72
2022/05/21 07:18:46;;;;;;;7.38;2.15;;;23.40;99.60;;;;;;5065024;28;20186;-72
2022/05/21 07:21:18;;;;;;;7.95;2.50;;;23.50;99.90;;;;;;5061535;28;20203;-72
2022/05/21 07:23:47;;;;;;;7.78;2.15;;;23.60;99.90;;;;;;5025964;28;20275;-72
2022/05/21 07:26:14;;;;;;;5.03;2.03;;;23.70;99.40;;;;;;5036685;28;20206;-72
2022/05/21 07:28:41;;;;;;;11.57;1.90;;;23.70;99.70;;;;;;5067633;28;20191;-72
2022/05/21 07:31:08;;;;;;;5.78;2.00;;;23.80;99.80;;;;;;5050669;28;20217;-71
2022/05/21 07:33:35;;;;;;;5.32;1.90;;;23.90;99.90;;;;;;5066870;28;20277;-71
2022/05/21 07:36:03;;;;;;;5.20;1.85;;;24.00;99.90;;;;;;5051321;28;20737;-71
2022/05/21 07:38:30;;;;;;;4.30;1.90;;;24.00;99.80;;;;;;5057561;28;20278;-71
2022/05/21 07:41:01;;;;;;;3.45;1.70;;;24.20;99.50;;;;;;5046522;28;20186;-71
2022/05/21 07:43:33;;;;;;;8.32;1.90;;;24.30;99.50;;;;;;5059587;28;20607;-71
2022/05/21 07:46:03;;;;;;;15.43;2.38;;;24.30;99.10;;;;;;5058599;28;20187;-71
2022/05/21 07:48:29;;;;;;;7.90;2.10;;;24.50;98.40;;;;;;5065217;28;20189;-71
2022/05/21 07:51:02;;;;;;;9.38;2.05;;;24.50;98.10;;;;;;5076660;28;20214;-71
2022/05/21 07:53:39;;;;;;;5.53;2.20;;;24.60;98.30;;;;;;5065636;28;20221;-72
2022/05/21 07:56:10;;;;;;;6.93;2.10;;;24.70;97.90;;;;;;5066049;28;20191;-71
2022/05/21 07:58:43;;;;;;;4.07;1.70;;;24.80;98.20;;;;;;5046316;28;20186;-71
2022/05/21 08:01:11;;;;;;;4.57;1.88;;;24.90;97.90;;;;;;5054569;28;20974;-72
2022/05/21 08:03:38;;;;;;;5.95;1.70;;;25.00;97.80;;;;;;5064876;28;20183;-71
2022/05/21 08:06:05;;;;;;;7.22;2.15;;;25.00;97.80;;;;;;5067210;28;20729;-72
2022/05/21 08:08:31;;;;;;;9.43;2.35;;;25.10;97.50;;;;;;5056334;28;20196;-72
2022/05/21 08:10:58;;;;;;;12.57;2.15;;;25.20;97.50;;;;;;5053513;28;20218;-72
2022/05/21 08:13:25;;;;;;;3.97;1.75;;;25.30;97.30;;;;;;5058449;28;20187;-72
2022/05/21 08:15:56;;;;;;;4.47;1.77;;;25.50;97.30;;;;;;5053140;28;20191;-72
2022/05/21 08:18:29;;;;;;;4.15;1.92;;;25.60;97.00;;;;;;5053092;28;20617;-72
2022/05/21 08:20:56;;;;;;;6.05;1.98;;;25.60;96.80;;;;;;5057823;28;20206;-73
2022/05/21 08:28:52;;;;;;;5.60;2.10;;;25.80;96.60;;;;;;5066714;28;20195;-73
2022/05/21 08:31:19;;;;;;;5.78;1.80;;;26.00;96.40;;;;;;5039987;28;20214;-73
2022/05/21 08:33:46;;;;;;;4.20;1.92;;;26.20;96.80;;;;;;5059347;28;20221;-73
2022/05/21 08:36:13;;;;;;;6.85;1.83;;;26.20;97.70;;;;;;5055641;28;20202;-73
2022/05/21 08:38:41;;;;;;;4.57;1.80;;;26.20;97.30;;;;;;5044769;28;20729;-73
2022/05/21 08:41:21;;;;;;;5.78;2.38;;;26.30;98.10;;;;;;5065559;28;20245;-73
2022/05/21 08:44:03;;;;;;;5.60;2.10;;;26.40;97.50;;;;;;5058191;28;21968;-73
2022/05/21 08:46:51;;;;;;;5.60;2.25;;;26.50;97.60;;;;;;5041121;28;20206;-73
2022/05/21 08:49:35;;;;;;;7.82;2.42;;;26.70;97.70;;;;;;5052956;28;20274;-72
2022/05/21 08:52:37;;;;;;;9.70;1.95;;;26.80;97.40;;;;;;5038608;28;20265;-73
2022/05/21 08:55:09;;;;;;;6.93;2.13;;;26.80;97.30;;;;;;5056616;28;20294;-73
2022/05/21 08:57:58;;;;;;;4.63;2.03;;;26.90;96.80;;;;;;5071186;28;20182;-73
2022/05/21 09:00:37;;;;;;;5.28;1.98;;;26.90;96.70;;;;;;5031899;28;20187;-73
2022/05/21 09:03:18;;;;;;;5.03;1.90;;;27.10;97.20;;;;;;5073371;28;20642;-74
2022/05/21 09:06:17;;;;;;;6.50;2.10;;;27.30;96.80;;;;;;5043075;28;20248;-73
2022/05/21 09:09:39;;;;;;;5.72;1.90;;;27.40;96.80;;;;;;5031702;28;20228;-74
2022/05/21 09:12:30;;;;;;;10.23;2.38;;;27.50;96.20;;;;;;5055833;28;20662;-73
2022/05/21 09:15:03;;;;;;;10.48;2.50;;;27.60;96.10;;;;;;5059598;28;20199;-73
2022/05/21 09:17:32;;;;;;;6.85;2.15;;;27.80;95.90;;;;;;5077758;28;20655;-73
2022/05/21 09:20:04;;;;;;;10.02;2.47;;;27.90;95.40;;;;;;5045091;28;20285;-74
2022/05/21 09:22:31;;;;;;;2.78;1.90;;;27.90;95.40;;;;;;5047192;28;20192;-73
2022/05/21 09:25:03;;;;;;;6.68;2.05;;;28.00;94.80;;;;;;5076971;28;20182;-74
2022/05/21 09:27:41;;;;;;;7.13;2.00;;;28.10;94.60;;;;;;5071127;28;20183;-74
2022/05/21 09:30:23;;;;;;;2.72;1.67;;;28.10;94.70;;;;;;5037563;28;20211;-74
2022/05/21 09:32:56;;;;;;;3.40;1.92;;;28.20;94.60;;;;;;5051635;28;20778;-74
2022/05/21 09:35:33;;;;;;;7.85;1.85;;;28.30;94.20;;;;;;5068859;28;20275;-74
2022/05/21 09:38:19;;;;;;;6.00;2.10;;;28.40;94.70;;;;;;5071605;28;20183;-73
2022/05/21 09:40:46;;;;;;;10.40;2.13;;;28.50;93.90;;;;;;5025236;28;20245;-74
2022/05/21 09:46:28;;;;;;;6.07;2.13;;;28.70;93.60;;;;;;5043522;28;20210;-73
2022/05/21 09:49:16;;;;;;;7.80;2.03;;;28.90;93.90;;;;;;5043191;28;20187;-74
2022/05/21 09:51:55;;;;;;;11.25;2.10;;;28.90;93.50;;;;;;5054300;28;20226;-73
2022/05/21 09:54:33;;;;;;;7.70;2.00;;;29.00;94.10;;;;;;5058529;28;20634;-73
2022/05/21 09:57:00;;;;;;;9.63;1.90;;;29.20;93.80;;;;;;5056619;28;20269;-73
2022/05/21 09:59:33;;;;;;;5.80;2.13;;;29.20;92.90;;;;;;5059897;28;20198;-73
2022/05/21 10:02:22;;;;;;;4.57;1.92;;;29.20;92.70;;;;;;5056708;28;20184;-74
2022/05/21 10:04:57;;;;;;;10.30;2.10;;;29.20;92.80;;;;;;5048386;28;20213;-74
2022/05/21 10:10:59;;;;;;;3.08;1.67;;;29.20;92.90;;;;;;5039397;28;20573;-74
2022/05/21 10:13:51;;;;;;;4.32;1.92;;;29.20;92.70;;;;;;5061228;28;20191;-74
2022/05/21 10:16:46;;;;;;;8.73;2.00;;;29.40;92.90;;;;;;5034446;28;20194;-74
2022/05/21 10:19:44;;;;;;;4.40;1.88;;;29.40;93.00;;;;;;5079247;28;20191;-74
2022/05/21 10:22:58;;;;;;;6.97;2.15;;;29.50;93.00;;;;;;5069327;28;20268;-74
2022/05/21 10:25:59;;;;;;;5.70;1.73;;;29.50;92.40;;;;;;5034080;28;20266;-74
2022/05/21 10:29:09;;;;;;;7.25;2.35;;;29.50;92.80;;;;;;5054365;28;20210;-74
2022/05/21 10:32:02;;;;;;;4.40;1.90;;;29.50;92.20;;;;;;5081271;28;20795;-74
2022/05/21 10:34:53;;;;;;;6.30;2.15;;;29.40;92.10;;;;;;5050231;28;20274;-74
2022/05/21 10:37:56;;;;;;;11.70;1.92;;;29.50;92.40;;;;;;5053520;28;20191;-74
2022/05/21 10:40:57;;;;;;;16.90;2.00;;;29.50;92.30;;;;;;5066145;28;20198;-74
2022/05/21 10:43:29;;;;;;;5.07;2.15;;;29.50;92.50;;;;;;5086788;28;20194;-74
2022/05/21 10:46:35;;;;;;;6.32;1.80;;;29.50;92.40;;;;;;5036056;28;20190;-74
2022/05/21 10:49:37;;;;;;;5.53;1.98;;;29.50;92.20;;;;;;5051923;28;20281;-74
2022/05/21 10:52:33;;;;;;;4.47;1.70;;;29.50;92.10;;;;;;5068711;28;20689;-74
2022/05/21 10:55:27;;;;;;;5.90;1.90;;;29.40;92.40;;;;;;5031803;28;20201;-74
2022/05/21 10:58:55;;;;;;;7.45;1.95;;;29.50;92.30;;;;;;5080083;28;20269;-74
2022/05/21 11:01:58;;;;;;;6.25;1.83;;;29.40;92.40;;;;;;5071478;28;20790;-74
2022/05/21 11:04:44;;;;;;;3.53;1.67;;;29.40;92.60;;;;;;5033773;28;20294;-74
2022/05/21 11:07:36;;;;;;;6.13;1.80;;;29.40;92.00;;;;;;5067044;28;20201;-74
2022/05/21 11:10:14;;;;;;;8.45;2.20;;;29.40;92.40;;;;;;5050108;28;20220;-74
2022/05/21 11:12:55;;;;;;;7.10;2.00;;;29.30;91.90;;;;;;5053209;28;20182;-74
2022/05/21 11:15:40;;;;;;;9.60;2.00;;;29.30;92.30;;;;;;5068776;28;20295;-74
2022/05/21 11:18:32;;;;;;;8.95;2.38;;;29.30;92.70;;;;;;5044493;28;20663;-74
2022/05/21 11:21:28;;;;;;;4.95;1.80;;;29.30;92.30;;;;;;5066326;28;20582;-74
2022/05/21 11:24:02;;;;;;;7.07;2.13;;;29.30;92.60;;;;;;5058220;28;20644;-74
2022/05/21 11:26:55;;;;;;;6.18;1.88;;;29.30;92.40;;;;;;5050570;28;20183;-74
2022/05/21 11:29:42;;;;;;;7.57;2.15;;;29.30;92.30;;;;;;5034176;28;20202;-74
2022/05/21 11:38:01;;;;;;;7.55;2.03;;;29.30;92.60;;;;;;5063747;28;20517;-74
2022/05/21 11:41:27;;;;;;;12.40;1.92;;;29.30;92.90;;;;;;5033681;28;20623;-74
2022/05/21 11:46:45;;;;;;;6.20;1.95;;;29.10;93.10;;;;;;5068935;28;20592;-74
2022/05/21 11:49:39;;;;;;;8.57;2.17;;;29.20;92.60;;;;;;5076535;28;20333;-74
2022/05/21 11:52:27;;;;;;;5.30;2.10;;;29.10;92.70;;;;;;5070543;28;20503;-74
2022/05/21 11:54:54;;;;;;;5.80;2.15;;;29.10;92.50;;;;;;5063235;28;20215;-75
2022/05/21 11:57:48;;;;;;;5.30;2.22;;;29.20;92.50;;;;;;5063504;28;20191;-74
2022/05/21 12:00:18;;;;;;;10.05;2.10;;;29.20;92.30;;;;;;5066903;28;20225;-74
2022/05/21 12:02:56;;;;;;;10.80;2.08;;;29.20;92.50;;;;;;5033406;28;20186;-74
2022/05/21 12:05:37;;;;;;;6.45;1.85;;;29.10;92.10;;;;;;5081449;28;20190;-74
2022/05/21 12:08:22;;;;;;;11.73;2.30;;;29.00;92.70;;;;;;5087811;28;20182;-74
2022/05/21 12:11:39;;;;;;;8.60;2.03;;;29.10;93.00;;;;;;5076584;28;20360;-74
2022/05/21 12:14:21;;;;;;;11.90;2.75;;;29.00;92.20;;;;;;5053560;28;20194;-74
2022/05/21 12:16:58;;;;;;;5.07;2.03;;;29.00;92.20;;;;;;5071425;28;20186;-74
2022/05/21 12:20:07;;;;;;;4.95;1.88;;;28.90;91.80;;;;;;5085347;28;20193;-74
2022/05/21 12:22:44;;;;;;;11.27;2.15;;;28.90;92.00;;;;;;4968393;28;20908;-74
2022/05/21 12:25:46;;;;;;;8.85;2.10;;;28.80;91.80;;;;;;4979286;28;20217;-74
2022/05/21 12:28:13;;;;;;;7.28;2.28;;;28.80;92.10;;;;;;5040481;28;20297;-74
2022/05/21 12:30:43;;;;;;;6.05;1.63;;;28.90;91.90;;;;;;5041645;28;20290;-74
2022/05/21 12:33:27;;;;;;;7.18;2.40;;;28.80;91.90;;;;;;5052865;28;20654;-74
2022/05/21 12:36:29;;;;;;;5.30;2.05;;;28.70;91.50;;;;;;5071705;28;20187;-74
2022/05/21 12:39:02;;;;;;;7.70;2.00;;;28.60;91.50;;;;;;5045785;28;20186;-74
2022/05/21 12:41:42;;;;;;;4.28;1.67;;;28.50;91.30;;;;;;5066310;28;20238;-74
2022/05/21 12:44:09;;;;;;;5.07;2.20;;;28.50;91.20;;;;;;5066509;28;20226;-74
2022/05/21 12:46:36;;;;;;;7.70;1.85;;;28.60;91.40;;;;;;5069658;28;20199;-74
2022/05/21 12:49:11;;;;;;;4.32;1.70;;;28.60;91.80;;;;;;5063389;28;20256;-74
2022/05/21 12:51:58;;;;;;;6.90;2.05;;;28.60;91.60;;;;;;5069105;28;20225;-74
2022/05/21 12:54:28;;;;;;;3.30;1.60;;;28.40;90.70;;;;;;5078210;28;20197;-74
2022/05/21 12:56:56;;;;;;;4.72;1.80;;;28.40;90.60;;;;;;5050798;28;20233;-74
2022/05/21 12:59:30;;;;;;;6.18;2.17;;;28.40;90.70;;;;;;5081120;28;20226;-74
2022/05/21 13:01:56;;;;;;;9.30;1.77;;;28.30;91.00;;;;;;5053354;28;20586;-74
2022/05/21 13:04:39;;;;;;;9.23;2.30;;;28.30;90.80;;;;;;5070528;28;20186;-74
2022/05/21 13:07:41;;;;;;;5.10;1.98;;;28.30;90.90;;;;;;5071551;28;20278;-74
2022/05/21 13:10:27;;;;;;;5.20;2.10;;;28.20;90.50;;;;;;5044974;28;20306;-74
2022/05/21 13:13:11;;;;;;;4.63;1.70;;;28.20;90.90;;;;;;5053772;28;20293;-74
2022/05/21 13:15:44;;;;;;;6.18;1.50;;;28.10;90.60;;;;;;5072075;28;20195;-74
2022/05/21 13:18:47;;;;;;;10.98;1.85;;;28.20;90.80;;;;;;5051586;28;20222;-74
2022/05/21 13:21:43;;;;;;;6.70;2.20;;;28.20;90.40;;;;;;5030360;28;20198;-74
2022/05/21 13:24:15;;;;;;;5.65;2.20;;;28.30;89.80;;;;;;5070131;28;20272;-75
2022/05/21 13:27:08;;;;;;;5.28;1.85;;;28.30;90.50;;;;;;5062078;28;20195;-74
2022/05/21 13:29:35;;;;;;;5.45;2.00;;;28.50;90.50;;;;;;5048512;28;20204;-74
2022/05/21 13:32:24;;;;;;;3.17;1.90;;;28.50;90.10;;;;;;5055679;28;20207;-74
2022/05/21 13:35:00;;;;;;;7.35;2.15;;;28.40;89.80;;;;;;5048963;28;20195;-74
2022/05/21 13:37:39;;;;;;;5.20;2.00;;;28.40;90.40;;;;;;5053433;28;20514;-74
2022/05/21 13:40:08;;;;;;;5.00;1.77;;;28.40;90.70;;;;;;5032925;28;20282;-74
2022/05/21 13:42:36;;;;;;;6.03;2.35;;;28.30;90.40;;;;;;5075051;28;20181;-74
2022/05/21 13:45:20;;;;;;;6.53;2.15;;;28.30;89.10;;;;;;5052769;28;20201;-74
2022/05/21 13:48:00;;;;;;;11.60;2.03;;;28.20;90.00;;;;;;5066751;28;20799;-74
2022/05/21 13:50:32;;;;;;;5.65;1.92;;;28.20;89.60;;;;;;5050449;28;20674;-73
2022/05/21 13:53:00;;;;;;;3.50;1.83;;;28.30;90.00;;;;;;5053465;28;20185;-74
2022/05/21 13:55:27;;;;;;;10.68;2.25;;;28.20;89.80;;;;;;5056205;28;20178;-74
2022/05/21 13:58:14;;;;;;;5.00;1.90;;;28.20;90.20;;;;;;5072648;28;20269;-74
2022/05/21 14:00:40;;;;;;;5.78;2.00;;;28.30;90.60;;;;;;5068279;28;24263;-74